Time;durP1;ratioP1;P1;durP2;ratioP2;P2;SDS_P1;SDS_P2;PMS_P1;PMS_P2;Temp;Humidity;BMP_temperature;BMP_pressure;BME280_temperature;BME280_humidity;BME280_pressure;Samples;Min_cycle;Max_cycle;Signal;HPM_P1;HPM_P2
2022/04/08 00:01:51;;;;;;;20.33;2.00;;;4.40;99.90;;;;;;5033121;28;20124;-67
2022/04/08 00:04:16;;;;;;;16.42;2.47;;;4.50;99.90;;;;;;5033202;28;20079;-67
2022/04/08 00:06:42;;;;;;;10.50;1.80;;;4.60;99.90;;;;;;5033140;28;20032;-67
2022/04/08 00:09:07;;;;;;;14.13;2.45;;;4.70;99.90;;;;;;5032955;28;20037;-67
2022/04/08 00:11:33;;;;;;;21.45;2.55;;;4.70;99.90;;;;;;5033143;28;20409;-67
2022/04/08 00:14:00;;;;;;;13.43;2.33;;;4.80;99.90;;;;;;5033099;28;20103;-67
2022/04/08 00:16:26;;;;;;;26.80;3.25;;;4.80;99.90;;;;;;5033627;28;20529;-67
2022/04/08 00:18:51;;;;;;;19.92;2.78;;;4.70;99.90;;;;;;5033238;28;20105;-67
2022/04/08 00:21:17;;;;;;;27.85;2.75;;;4.60;99.90;;;;;;5033237;28;20034;-67
2022/04/08 00:23:43;;;;;;;26.83;3.42;;;4.50;99.90;;;;;;5033177;28;20377;-67
2022/04/08 00:26:08;;;;;;;28.67;4.25;;;4.40;99.90;;;;;;5032994;28;20021;-67
2022/04/08 00:28:34;;;;;;;31.75;3.55;;;4.30;99.90;;;;;;5033130;28;20021;-67
2022/04/08 00:31:00;;;;;;;34.95;3.65;;;4.30;99.90;;;;;;5032968;28;20021;-67
2022/04/08 00:33:26;;;;;;;29.90;4.03;;;4.20;99.90;;;;;;5032876;28;20023;-67
2022/04/08 00:35:51;;;;;;;25.60;4.55;;;4.10;99.90;;;;;;5033175;28;20079;-67
2022/04/08 00:38:17;;;;;;;21.70;3.42;;;4.10;99.90;;;;;;5032822;28;20116;-67
2022/04/08 00:40:43;;;;;;;27.80;4.70;;;4.10;99.90;;;;;;5033083;28;20023;-67
2022/04/08 00:43:16;;;;;;;21.92;2.67;;;4.00;99.90;;;;;;5032990;28;20037;-67
2022/04/08 00:45:43;;;;;;;26.27;3.83;;;4.00;99.90;;;;;;5033110;28;20021;-67
2022/04/08 00:48:09;;;;;;;34.80;4.70;;;4.00;99.90;;;;;;5034111;28;20029;-67
2022/04/08 00:50:39;;;;;;;33.05;4.03;;;4.00;99.90;;;;;;5036421;28;20029;-67
2022/04/08 00:53:06;;;;;;;29.17;4.97;;;4.00;99.90;;;;;;5036741;28;20029;-67
2022/04/08 00:55:32;;;;;;;15.00;2.88;;;4.00;99.90;;;;;;5036649;28;20033;-67
2022/04/08 00:58:04;;;;;;;27.00;4.00;;;4.00;99.90;;;;;;5036554;28;20025;-67
2022/04/08 01:00:35;;;;;;;29.50;4.10;;;4.00;99.90;;;;;;5036523;28;20444;-67
2022/04/08 01:03:01;;;;;;;35.45;4.70;;;4.00;99.90;;;;;;5036178;28;20030;-67
2022/04/08 01:05:26;;;;;;;38.90;3.90;;;4.00;99.90;;;;;;5036196;28;20022;-67
2022/04/08 01:07:53;;;;;;;27.30;4.35;;;4.00;99.90;;;;;;5036212;28;20101;-67
2022/04/08 01:10:19;;;;;;;27.05;4.45;;;4.10;99.90;;;;;;5035939;28;20091;-67
2022/04/08 01:12:45;;;;;;;47.88;4.63;;;4.10;99.90;;;;;;5036339;28;20474;-67
2022/04/08 01:15:10;;;;;;;23.17;4.45;;;4.10;99.90;;;;;;5036305;28;20056;-67
2022/04/08 01:17:36;;;;;;;35.83;4.70;;;4.10;99.90;;;;;;5036509;28;20032;-67
2022/04/08 01:20:03;;;;;;;44.13;5.47;;;4.10;99.90;;;;;;5035864;28;20060;-67
2022/04/08 01:22:28;;;;;;;34.90;4.38;;;4.10;99.90;;;;;;5035778;28;20087;-67
2022/04/08 01:25:00;;;;;;;33.33;5.35;;;4.10;99.90;;;;;;5036138;28;20017;-67
2022/04/08 01:27:26;;;;;;;31.63;4.13;;;4.10;99.90;;;;;;5035801;28;20080;-67
2022/04/08 01:29:52;;;;;;;31.45;4.47;;;4.10;99.90;;;;;;5035989;28;20025;-67
2022/04/08 01:32:17;;;;;;;35.15;3.67;;;4.10;99.90;;;;;;5035713;28;20033;-67
2022/04/08 01:34:44;;;;;;;30.77;3.95;;;4.00;99.90;;;;;;5035901;28;20036;-67
2022/04/08 01:37:10;;;;;;;30.58;4.50;;;4.00;99.90;;;;;;5035906;28;20386;-67
2022/04/08 01:39:36;;;;;;;35.58;6.13;;;4.10;99.90;;;;;;5035544;28;20028;-67
2022/04/08 01:42:02;;;;;;;25.08;3.60;;;4.10;99.90;;;;;;5035485;28;20025;-67
2022/04/08 01:44:28;;;;;;;35.05;5.68;;;4.10;99.90;;;;;;5035478;28;20053;-67
2022/04/08 01:46:53;;;;;;;27.77;3.45;;;4.10;99.90;;;;;;5035976;28;20021;-67
2022/04/08 01:49:19;;;;;;;25.33;3.13;;;4.20;99.90;;;;;;5035618;28;20021;-67
2022/04/08 01:51:44;;;;;;;23.83;2.92;;;4.20;99.90;;;;;;5035452;28;20025;-67
2022/04/08 01:54:10;;;;;;;17.77;3.30;;;4.20;99.90;;;;;;5035311;28;20494;-67
2022/04/08 01:56:35;;;;;;;25.42;3.67;;;4.20;99.90;;;;;;5035298;28;20445;-67
2022/04/08 01:59:01;;;;;;;16.25;3.28;;;4.20;99.90;;;;;;5034962;28;20038;-67
2022/04/08 02:01:26;;;;;;;29.80;3.70;;;4.20;99.90;;;;;;5035177;28;20043;-67
2022/04/08 02:03:52;;;;;;;32.88;3.95;;;4.20;99.90;;;;;;5035680;28;20043;-67
2022/04/08 02:06:17;;;;;;;27.83;3.67;;;4.20;99.90;;;;;;5035091;28;20029;-67
2022/04/08 02:08:43;;;;;;;35.97;4.88;;;4.20;99.90;;;;;;5035040;28;20465;-67
2022/04/08 02:11:09;;;;;;;33.13;5.57;;;4.20;99.90;;;;;;5034980;28;20393;-67
2022/04/08 02:13:34;;;;;;;31.58;4.93;;;4.20;99.90;;;;;;5035213;28;20374;-67
2022/04/08 02:16:00;;;;;;;39.85;4.72;;;4.10;99.90;;;;;;5034897;28;20391;-67
2022/04/08 02:18:25;;;;;;;23.63;3.30;;;4.10;99.90;;;;;;5034851;28;20498;-67
2022/04/08 02:20:51;;;;;;;32.38;3.25;;;4.10;99.90;;;;;;5034795;28;20111;-67
2022/04/08 02:23:17;;;;;;;30.50;4.00;;;4.10;99.90;;;;;;5034960;28;20088;-67
2022/04/08 02:25:45;;;;;;;31.25;3.78;;;4.00;99.90;;;;;;5034690;28;20025;-67
2022/04/08 02:28:11;;;;;;;20.60;3.22;;;4.00;99.90;;;;;;5034688;28;20111;-67
2022/04/08 02:30:37;;;;;;;27.05;4.90;;;4.00;99.90;;;;;;5034831;28;20477;-67
2022/04/08 02:33:04;;;;;;;28.42;3.80;;;4.00;99.90;;;;;;5034574;28;20036;-67
2022/04/08 02:35:30;;;;;;;40.17;4.75;;;3.90;99.90;;;;;;5034525;28;20044;-67
2022/04/08 02:37:56;;;;;;;24.25;3.42;;;3.90;99.90;;;;;;5034447;28;20044;-67
2022/04/08 02:40:22;;;;;;;23.95;3.33;;;3.90;99.90;;;;;;5034631;28;20025;-67
2022/04/08 02:42:47;;;;;;;31.25;4.53;;;3.90;99.90;;;;;;5034314;28;20036;-67
2022/04/08 02:45:13;;;;;;;28.55;5.20;;;4.00;99.90;;;;;;5034265;28;20022;-67
2022/04/08 02:47:45;;;;;;;21.42;3.28;;;4.00;99.90;;;;;;5034277;28;20029;-67
2022/04/08 02:50:11;;;;;;;21.38;3.17;;;4.00;99.90;;;;;;5034292;28;20033;-67
2022/04/08 02:52:37;;;;;;;32.47;3.45;;;4.10;99.90;;;;;;5034698;28;20466;-67
2022/04/08 02:55:04;;;;;;;26.98;4.03;;;4.10;99.90;;;;;;5034100;28;20096;-67
2022/04/08 02:57:30;;;;;;;24.42;3.08;;;4.10;99.90;;;;;;5034338;28;20026;-67
2022/04/08 02:59:56;;;;;;;28.30;4.10;;;4.20;99.90;;;;;;5034073;28;20034;-66
2022/04/08 03:02:21;;;;;;;24.80;4.38;;;4.20;99.90;;;;;;5034237;28;20025;-66
2022/04/08 03:04:47;;;;;;;38.80;3.70;;;4.20;99.90;;;;;;5034224;28;20025;-67
2022/04/08 03:07:12;;;;;;;25.30;4.25;;;4.20;99.90;;;;;;5033883;28;20026;-67
2022/04/08 03:09:38;;;;;;;39.90;7.07;;;4.20;99.90;;;;;;5033710;28;20033;-67
2022/04/08 03:12:04;;;;;;;27.30;5.22;;;4.30;99.90;;;;;;5033237;28;20377;-67
2022/04/08 03:14:31;;;;;;;39.08;4.90;;;4.30;99.90;;;;;;5034039;28;20052;-67
2022/04/08 03:16:57;;;;;;;39.85;4.50;;;4.30;99.90;;;;;;5034039;28;20025;-67
2022/04/08 03:19:23;;;;;;;30.27;5.20;;;4.30;99.90;;;;;;5033660;28;20108;-67
2022/04/08 03:21:48;;;;;;;44.50;5.97;;;4.30;99.90;;;;;;5033623;28;20113;-67
2022/04/08 03:24:14;;;;;;;33.22;4.15;;;4.40;99.90;;;;;;5034186;28;20021;-67
2022/04/08 03:26:40;;;;;;;36.17;3.80;;;4.40;99.90;;;;;;5033930;28;20021;-67
2022/04/08 03:29:06;;;;;;;34.50;3.97;;;4.50;99.90;;;;;;5033540;28;20032;-67
2022/04/08 03:31:31;;;;;;;32.05;5.00;;;4.60;99.90;;;;;;5033549;28;20456;-67
2022/04/08 03:33:57;;;;;;;33.97;4.50;;;4.50;99.90;;;;;;5033520;28;20477;-67
2022/04/08 03:36:22;;;;;;;31.42;4.30;;;4.50;99.90;;;;;;5033495;28;20547;-67
2022/04/08 03:38:48;;;;;;;21.77;6.53;;;4.60;99.90;;;;;;5033417;28;20036;-67
2022/04/08 03:41:14;;;;;;;42.35;5.43;;;4.50;99.90;;;;;;5033342;28;20033;-67
2022/04/08 03:43:39;;;;;;;30.67;4.75;;;4.40;99.90;;;;;;5033680;28;20027;-67
2022/04/08 03:46:05;;;;;;;52.00;6.38;;;4.40;99.90;;;;;;5033337;28;20104;-67
2022/04/08 03:48:30;;;;;;;30.88;3.40;;;4.40;99.90;;;;;;5033449;28;20037;-67
2022/04/08 03:50:56;;;;;;;30.42;3.92;;;4.30;99.90;;;;;;5033344;28;20033;-67
2022/04/08 03:53:22;;;;;;;35.35;4.57;;;4.30;99.90;;;;;;5033316;28;20035;-67
2022/04/08 03:55:48;;;;;;;25.73;3.25;;;4.30;99.90;;;;;;5033309;28;20028;-67
2022/04/08 03:58:13;;;;;;;24.33;3.38;;;4.30;99.90;;;;;;5033211;28;20100;-67
2022/04/08 04:00:39;;;;;;;32.60;3.22;;;4.30;99.90;;;;;;5033208;28;20112;-67
2022/04/08 04:03:05;;;;;;;26.98;3.58;;;4.40;99.90;;;;;;5033396;28;20080;-67
2022/04/08 04:05:34;;;;;;;30.98;4.85;;;4.40;99.90;;;;;;5033201;28;20030;-67
2022/04/08 04:08:00;;;;;;;28.50;3.75;;;4.50;99.90;;;;;;5033436;28;20084;-67
2022/04/08 04:10:29;;;;;;;25.77;3.67;;;4.50;99.90;;;;;;5032961;28;20547;-67
2022/04/08 04:12:54;;;;;;;38.22;4.28;;;4.50;99.90;;;;;;5033347;28;20041;-67
2022/04/08 04:15:20;;;;;;;24.75;3.55;;;4.60;99.90;;;;;;5033095;28;20022;-67
2022/04/08 04:17:46;;;;;;;42.22;4.75;;;4.60;99.90;;;;;;5033325;28;20065;-67
2022/04/08 04:20:12;;;;;;;47.20;5.90;;;4.60;99.90;;;;;;5033326;28;20022;-67
2022/04/08 04:22:37;;;;;;;31.85;4.43;;;4.70;99.90;;;;;;5033587;28;20124;-67
2022/04/08 04:25:04;;;;;;;31.42;5.35;;;4.70;99.90;;;;;;5037557;28;20053;-67
2022/04/08 04:27:30;;;;;;;46.75;4.00;;;4.70;99.90;;;;;;5036993;28;20072;-67
2022/04/08 04:29:56;;;;;;;36.25;5.43;;;4.80;99.90;;;;;;5019268;28;20529;-66
2022/04/08 04:32:21;;;;;;;41.92;4.30;;;4.90;99.90;;;;;;5036829;28;20056;-66
2022/04/08 04:34:47;;;;;;;29.38;4.68;;;4.90;99.90;;;;;;5036822;28;20037;-66
2022/04/08 04:37:12;;;;;;;39.72;4.47;;;4.90;99.90;;;;;;5036711;28;20065;-66
2022/04/08 04:39:38;;;;;;;28.70;4.70;;;4.90;99.90;;;;;;5037044;28;20034;-67
2022/04/08 04:42:04;;;;;;;22.13;3.80;;;4.90;99.90;;;;;;5036572;28;20032;-67
2022/04/08 04:44:30;;;;;;;30.85;3.13;;;4.80;99.90;;;;;;5036669;28;20022;-67
2022/04/08 04:46:56;;;;;;;42.15;4.75;;;4.80;99.90;;;;;;5036824;28;20021;-67
2022/04/08 04:49:22;;;;;;;23.08;3.42;;;4.80;99.90;;;;;;5036636;28;20017;-67
2022/04/08 04:51:51;;;;;;;23.42;3.13;;;4.80;99.90;;;;;;5036716;28;20438;-67
2022/04/08 04:54:16;;;;;;;31.55;4.70;;;4.80;99.90;;;;;;5036405;28;20117;-67
2022/04/08 04:56:43;;;;;;;37.92;4.30;;;4.80;99.90;;;;;;5036376;28;20576;-67
2022/04/08 04:59:08;;;;;;;35.58;3.65;;;4.80;99.90;;;;;;5036324;28;20032;-67
2022/04/08 05:01:34;;;;;;;36.22;4.20;;;4.60;99.90;;;;;;5036221;28;20025;-67
2022/04/08 05:03:59;;;;;;;30.05;4.22;;;4.60;99.90;;;;;;5036239;28;20056;-67
2022/04/08 05:06:25;;;;;;;45.00;4.18;;;4.60;99.90;;;;;;5036208;28;20022;-67
2022/04/08 05:08:50;;;;;;;33.25;4.68;;;4.70;99.90;;;;;;5036218;28;20022;-67
2022/04/08 05:11:16;;;;;;;25.10;3.92;;;4.70;99.90;;;;;;5036945;28;20490;-67
2022/04/08 05:13:42;;;;;;;30.33;3.30;;;4.70;99.90;;;;;;5036650;28;20033;-66
2022/04/08 05:16:07;;;;;;;28.08;3.65;;;4.70;99.90;;;;;;5036039;28;20362;-66
2022/04/08 05:18:33;;;;;;;43.15;4.60;;;4.80;99.90;;;;;;5036208;28;20418;-67
2022/04/08 05:20:59;;;;;;;29.67;3.85;;;4.80;99.90;;;;;;5035975;28;20025;-67
2022/04/08 05:23:28;;;;;;;35.92;3.88;;;4.80;99.90;;;;;;5035869;28;20386;-67
2022/04/08 05:25:54;;;;;;;43.75;4.85;;;4.80;99.90;;;;;;5036102;28;20017;-67
2022/04/08 05:28:20;;;;;;;24.15;3.83;;;4.90;99.90;;;;;;5035737;28;20400;-67
2022/04/08 05:30:46;;;;;;;28.50;4.85;;;4.90;99.90;;;;;;5035793;28;20025;-67
2022/04/08 05:33:12;;;;;;;29.80;3.88;;;5.00;99.90;;;;;;5035983;28;20485;-67
2022/04/08 05:35:37;;;;;;;32.67;3.95;;;5.00;99.90;;;;;;5034695;28;20114;-67
2022/04/08 05:38:03;;;;;;;27.73;3.45;;;5.10;99.90;;;;;;5035933;28;20509;-67
2022/04/08 05:40:29;;;;;;;22.85;2.75;;;5.10;99.90;;;;;;5035542;28;20026;-66
2022/04/08 05:42:54;;;;;;;28.05;3.90;;;5.10;99.90;;;;;;5035474;28;20451;-67
2022/04/08 05:45:22;;;;;;;24.92;3.50;;;5.10;99.90;;;;;;5035515;28;20053;-67
2022/04/08 05:47:54;;;;;;;21.20;3.75;;;5.10;99.90;;;;;;5035739;28;20404;-66
2022/04/08 05:50:21;;;;;;;20.85;2.55;;;4.90;99.90;;;;;;5035689;28;20429;-66
2022/04/08 05:52:47;;;;;;;20.58;2.88;;;4.10;99.90;;;;;;5035377;28;20025;-66
2022/04/08 05:55:13;;;;;;;17.60;3.13;;;3.70;99.90;;;;;;5035578;28;20078;-66
2022/04/08 05:57:40;;;;;;;27.83;2.95;;;3.50;99.90;;;;;;5035286;28;20025;-66
2022/04/08 06:00:09;;;;;;;38.63;3.20;;;3.40;99.90;;;;;;5035162;28;20036;-66
2022/04/08 06:02:34;;;;;;;26.33;3.30;;;3.40;99.90;;;;;;5035149;28;20548;-66
2022/04/08 06:05:00;;;;;;;18.67;3.38;;;3.40;99.90;;;;;;5035141;28;20108;-66
2022/04/08 06:07:25;;;;;;;30.20;3.83;;;3.60;99.90;;;;;;5035088;28;20390;-66
2022/04/08 06:09:52;;;;;;;28.30;2.72;;;3.70;99.90;;;;;;5034880;28;20033;-66
2022/04/08 06:12:17;;;;;;;22.55;3.42;;;3.80;99.90;;;;;;5035572;28;20029;-67
2022/04/08 06:14:43;;;;;;;27.90;3.33;;;4.00;99.90;;;;;;5034998;28;20042;-66
2022/04/08 06:17:08;;;;;;;13.00;2.67;;;4.10;99.90;;;;;;5034945;28;20049;-66
2022/04/08 06:19:34;;;;;;;30.27;3.92;;;4.30;99.90;;;;;;5034793;28;20528;-67
2022/04/08 06:21:59;;;;;;;25.67;3.55;;;4.40;99.90;;;;;;5035304;28;20034;-66
2022/04/08 06:24:25;;;;;;;21.65;4.10;;;4.50;99.90;;;;;;5034986;28;20490;-67
2022/04/08 06:26:51;;;;;;;24.13;3.88;;;4.40;99.90;;;;;;5034788;28;20470;-67
2022/04/08 06:29:16;;;;;;;25.85;3.45;;;4.50;99.90;;;;;;5034627;28;20022;-67
2022/04/08 06:31:42;;;;;;;35.22;4.45;;;4.60;99.90;;;;;;5034633;28;20025;-67
2022/04/08 06:34:08;;;;;;;32.15;3.40;;;4.70;99.90;;;;;;5034790;28;20018;-67
2022/04/08 06:36:33;;;;;;;29.73;3.92;;;4.90;99.90;;;;;;5034550;28;20120;-67
2022/04/08 06:38:59;;;;;;;29.25;3.42;;;5.10;99.90;;;;;;5034423;28;20554;-67
2022/04/08 06:41:24;;;;;;;55.95;6.47;;;5.40;99.90;;;;;;5034367;28;20030;-67
2022/04/08 06:43:50;;;;;;;30.25;3.38;;;5.70;99.90;;;;;;5035092;28;20025;-67
2022/04/08 06:46:15;;;;;;;31.00;3.80;;;5.80;99.90;;;;;;5017215;28;20059;-67
2022/04/08 06:58:55;;;;;;;35.33;3.58;;;5.80;99.90;;;;;;5034329;28;20033;-67
2022/04/08 07:01:22;;;;;;;42.95;5.50;;;5.80;99.90;;;;;;5033931;28;20021;-67
2022/04/08 07:03:48;;;;;;;32.00;5.30;;;5.90;99.90;;;;;;5033760;28;20533;-68
2022/04/08 07:06:13;;;;;;;29.67;4.05;;;6.00;99.90;;;;;;5033727;28;20053;-67
2022/04/08 07:08:39;;;;;;;25.65;4.43;;;6.00;99.90;;;;;;5033819;28;20097;-67
2022/04/08 07:11:05;;;;;;;18.88;2.95;;;6.20;99.90;;;;;;5033915;28;20040;-67
2022/04/08 07:13:30;;;;;;;23.58;3.58;;;6.50;99.90;;;;;;5033885;28;20432;-67
2022/04/08 07:15:56;;;;;;;24.58;3.58;;;6.60;99.90;;;;;;5033845;28;20033;-67
2022/04/08 07:18:21;;;;;;;26.30;3.97;;;6.50;99.90;;;;;;5033958;28;20036;-67
2022/04/08 07:20:47;;;;;;;19.90;3.53;;;6.40;99.90;;;;;;5033755;28;20060;-67
2022/04/08 07:23:13;;;;;;;28.38;3.33;;;6.20;99.90;;;;;;5033653;28;20080;-67
2022/04/08 07:25:39;;;;;;;30.92;3.72;;;6.30;99.90;;;;;;5033685;28;20025;-67
2022/04/08 07:28:05;;;;;;;19.95;3.00;;;6.40;99.90;;;;;;5033945;28;20442;-67
2022/04/08 07:30:30;;;;;;;26.08;3.85;;;6.40;99.90;;;;;;5033581;28;20128;-67
2022/04/08 07:32:56;;;;;;;25.98;3.63;;;6.40;99.90;;;;;;5033583;28;20021;-67
2022/04/08 07:35:23;;;;;;;21.05;2.95;;;6.50;99.90;;;;;;5033554;28;20033;-67
2022/04/08 07:37:50;;;;;;;35.28;3.58;;;6.60;99.90;;;;;;5033824;28;20025;-67
2022/04/08 07:40:16;;;;;;;23.52;3.20;;;6.70;99.90;;;;;;5033406;28;20037;-67
2022/04/08 07:42:41;;;;;;;29.98;3.50;;;6.70;99.90;;;;;;5033411;28;20450;-67
2022/04/08 07:45:08;;;;;;;19.05;2.85;;;6.80;99.90;;;;;;5033446;28;20075;-67
2022/04/08 07:47:34;;;;;;;23.35;2.35;;;7.00;99.90;;;;;;5033381;28;20025;-67
2022/04/08 07:50:02;;;;;;;36.80;3.72;;;7.30;99.90;;;;;;5033290;28;20025;-67
2022/04/08 07:52:28;;;;;;;20.55;3.78;;;7.30;99.90;;;;;;5033346;28;20029;-67
2022/04/08 07:54:55;;;;;;;34.22;3.42;;;7.20;99.90;;;;;;5033318;28;20516;-67
2022/04/08 07:57:20;;;;;;;19.60;2.85;;;6.90;99.90;;;;;;5032720;28;20034;-67
2022/04/08 07:59:46;;;;;;;24.63;3.58;;;7.00;99.90;;;;;;5033159;28;20054;-67
2022/04/08 08:02:11;;;;;;;27.38;3.28;;;6.70;99.90;;;;;;5033698;28;20033;-67
2022/04/08 08:04:37;;;;;;;19.92;3.80;;;6.70;99.90;;;;;;5033478;28;20030;-67
2022/04/08 08:07:03;;;;;;;39.78;3.45;;;6.60;99.90;;;;;;5033150;28;20079;-67
2022/04/08 08:09:29;;;;;;;15.50;2.38;;;6.50;99.90;;;;;;5032888;28;20437;-67
2022/04/08 08:11:55;;;;;;;17.13;3.38;;;6.50;99.90;;;;;;5033111;28;20033;-67
2022/04/08 08:14:20;;;;;;;21.98;3.00;;;6.50;99.90;;;;;;5033188;28;20513;-67
2022/04/08 08:16:46;;;;;;;18.02;2.55;;;6.50;99.90;;;;;;5033647;28;20106;-67
2022/04/08 08:19:12;;;;;;;23.13;3.55;;;6.40;99.90;;;;;;5033000;28;20389;-67
2022/04/08 08:21:37;;;;;;;20.35;3.40;;;6.60;99.90;;;;;;5033051;28;20036;-67
2022/04/08 08:24:03;;;;;;;22.13;3.45;;;6.80;99.90;;;;;;5033130;28;20028;-67
2022/04/08 08:26:30;;;;;;;22.40;3.50;;;7.00;99.90;;;;;;5033366;28;20488;-67
2022/04/08 08:28:56;;;;;;;24.20;5.00;;;7.10;99.90;;;;;;5033014;28;20015;-67
2022/04/08 08:31:22;;;;;;;28.52;3.83;;;7.00;99.90;;;;;;5033767;28;20461;-68
2022/04/08 08:33:49;;;;;;;22.83;3.35;;;7.20;99.90;;;;;;5033310;28;20021;-68
2022/04/08 08:36:14;;;;;;;28.40;4.18;;;7.60;99.90;;;;;;5032972;28;20044;-68
2022/04/08 08:38:40;;;;;;;18.73;2.58;;;7.70;99.90;;;;;;5032881;28;20474;-68
2022/04/08 08:41:08;;;;;;;19.52;3.28;;;7.60;99.90;;;;;;5033631;28;20079;-68
2022/04/08 08:43:34;;;;;;;24.38;3.45;;;7.50;99.90;;;;;;5033090;28;20028;-67
2022/04/08 08:46:02;;;;;;;21.92;2.83;;;7.30;99.90;;;;;;5032827;28;20025;-68
2022/04/08 08:48:32;;;;;;;33.05;3.90;;;7.20;99.90;;;;;;5032801;28;20014;-68
2022/04/08 08:51:01;;;;;;;18.65;2.80;;;7.20;99.90;;;;;;5032962;28;20022;-67
2022/04/08 08:53:29;;;;;;;30.90;4.40;;;6.90;99.90;;;;;;5032803;28;20025;-67
2022/04/08 08:55:55;;;;;;;27.30;5.60;;;6.70;99.90;;;;;;5032794;28;20028;-67
2022/04/08 08:58:21;;;;;;;35.63;5.07;;;6.60;99.90;;;;;;5032691;28;20030;-67
2022/04/08 09:00:47;;;;;;;20.92;2.88;;;6.50;99.90;;;;;;5033308;28;20092;-67
2022/04/08 09:03:13;;;;;;;25.48;3.00;;;6.50;99.90;;;;;;5032940;28;20470;-67
2022/04/08 09:05:44;;;;;;;20.75;3.28;;;6.40;99.90;;;;;;5033009;28;20041;-67
2022/04/08 09:08:11;;;;;;;24.10;3.03;;;6.30;99.90;;;;;;5033552;28;20075;-67
2022/04/08 09:10:45;;;;;;;25.88;3.33;;;6.00;99.90;;;;;;5034837;28;20034;-67
2022/04/08 09:13:15;;;;;;;25.60;3.95;;;5.90;99.90;;;;;;5036450;28;20033;-68
2022/04/08 09:15:52;;;;;;;30.13;3.40;;;6.00;99.90;;;;;;5036708;28;20477;-68
2022/04/08 09:18:17;;;;;;;17.25;3.28;;;6.10;99.90;;;;;;5036462;28;20580;-69
2022/04/08 09:20:46;;;;;;;23.02;4.63;;;6.30;99.90;;;;;;5036088;28;20104;-71
2022/04/08 09:23:14;;;;;;;25.00;3.33;;;6.80;99.90;;;;;;5036186;28;20439;-68
2022/04/08 09:25:40;;;;;;;36.65;3.75;;;7.00;99.90;;;;;;5035997;28;20389;-68
2022/04/08 09:28:17;;;;;;;25.58;3.75;;;7.00;99.90;;;;;;5035938;28;20486;-68
2022/04/08 09:30:49;;;;;;;20.00;3.25;;;6.90;99.90;;;;;;5036079;28;20025;-68
2022/04/08 09:33:20;;;;;;;14.90;3.65;;;6.80;99.90;;;;;;5036029;28;20029;-68
2022/04/08 09:35:48;;;;;;;19.45;3.15;;;6.80;99.90;;;;;;5035853;28;20044;-68
2022/04/08 09:38:33;;;;;;;35.95;5.38;;;6.80;99.90;;;;;;5035950;28;20032;-68
2022/04/08 09:41:10;;;;;;;10.48;1.33;;;6.70;99.90;;;;;;5035999;28;20033;-68
2022/04/08 09:43:38;;;;;;;10.90;1.70;;;6.00;99.90;;;;;;5035686;28;20386;-67
2022/04/08 09:46:14;;;;;;;13.73;1.65;;;5.30;99.90;;;;;;5035910;28;20021;-67
2022/04/08 09:48:41;;;;;;;3.85;1.20;;;4.80;99.90;;;;;;5035462;28;20470;-68
2022/04/08 09:51:10;;;;;;;8.80;0.93;;;4.60;99.90;;;;;;5035473;28;20083;-67
2022/04/08 09:53:41;;;;;;;10.13;1.73;;;4.40;99.90;;;;;;5035438;28;20026;-68
2022/04/08 09:56:14;;;;;;;4.32;1.20;;;4.40;99.90;;;;;;5035932;28;20029;-68
2022/04/08 09:58:42;;;;;;;;;;;4.60;99.90;;;;;;5035680;28;20405;-68
2022/04/08 10:01:09;;;;;;;11.68;2.20;;;4.70;99.90;;;;;;5035397;28;19905;-68
2022/04/08 10:03:35;;;;;;;20.63;3.25;;;4.70;99.90;;;;;;5035132;28;20021;-68
2022/04/08 10:06:01;;;;;;;20.45;2.65;;;4.70;99.90;;;;;;5035773;28;20032;-68
2022/04/08 10:08:27;;;;;;;23.70;2.47;;;4.80;99.90;;;;;;5035195;28;20018;-68
2022/04/08 10:11:09;;;;;;;29.25;3.05;;;4.80;99.90;;;;;;5035073;28;20037;-67
2022/04/08 10:13:45;;;;;;;34.85;3.10;;;4.70;99.90;;;;;;5035407;28;20036;-67
2022/04/08 10:16:17;;;;;;;18.88;3.13;;;4.60;99.90;;;;;;5035298;28;20083;-67
2022/04/08 10:18:43;;;;;;;16.60;1.55;;;4.50;99.90;;;;;;5034921;28;20017;-67
2022/04/08 10:21:10;;;;;;;2.70;0.77;;;4.00;99.90;;;;;;5034471;28;20537;-67
2022/04/08 10:23:47;;;;;;;5.20;1.20;;;3.70;99.90;;;;;;5034751;28;20057;-67
2022/04/08 10:26:17;;;;;;;12.70;1.92;;;3.50;99.90;;;;;;5034940;28;20025;-67
2022/04/08 10:28:42;;;;;;;6.25;1.48;;;3.30;99.90;;;;;;5034704;28;20105;-67
2022/04/08 10:31:15;;;;;;;6.40;1.75;;;3.10;99.90;;;;;;5034701;28;20064;-67
2022/04/08 10:33:58;;;;;;;9.82;1.58;;;3.00;99.90;;;;;;5034848;28;20028;-67
2022/04/08 10:36:43;;;;;;;5.87;1.40;;;2.90;99.90;;;;;;5034963;28;20021;-67
2022/04/08 10:39:13;;;;;;;26.67;3.28;;;3.00;99.90;;;;;;5034768;28;20040;-67
2022/04/08 10:41:51;;;;;;;20.48;2.75;;;3.10;99.90;;;;;;5034459;28;20075;-67
2022/04/08 10:44:30;;;;;;;17.92;1.55;;;3.10;99.90;;;;;;5034737;28;20018;-67
2022/04/08 10:46:57;;;;;;;8.93;1.80;;;3.00;99.90;;;;;;5034681;28;20017;-67
2022/04/08 10:49:23;;;;;;;66.38;29.42;;;3.10;99.90;;;;;;5034823;28;20037;-67
2022/04/08 10:51:52;;;;;;;106.55;44.17;;;3.20;99.90;;;;;;5034304;28;20025;-67
2022/04/08 10:54:20;;;;;;;21.73;4.85;;;3.20;99.90;;;;;;5034291;28;20026;-67
2022/04/08 10:56:56;;;;;;;20.10;2.72;;;3.30;99.90;;;;;;5034265;28;20021;-67
2022/04/08 10:59:26;;;;;;;21.88;9.60;;;3.40;99.90;;;;;;5034318;28;20052;-68
2022/04/08 11:01:58;;;;;;;26.65;7.82;;;3.50;99.90;;;;;;5034056;28;20386;-67
2022/04/08 11:04:27;;;;;;;48.42;20.90;;;3.80;99.90;;;;;;5034187;28;20018;-68
2022/04/08 11:06:53;;;;;;;74.15;32.22;;;4.00;99.90;;;;;;5034124;28;20424;-67
2022/04/08 11:09:19;;;;;;;122.43;63.00;;;4.20;99.90;;;;;;5034170;28;20030;-68
2022/04/08 11:11:52;;;;;;;56.90;23.02;;;4.30;99.90;;;;;;5034765;28;20533;-70
2022/04/08 11:14:17;;;;;;;124.05;55.95;;;4.60;99.90;;;;;;5034531;28;20117;-70
2022/04/08 11:16:43;;;;;;;78.35;33.95;;;5.00;99.90;;;;;;5034223;28;20440;-70
2022/04/08 11:19:10;;;;;;;42.58;13.18;;;5.20;99.90;;;;;;5016116;28;20032;-70
2022/04/08 11:21:38;;;;;;;51.50;19.23;;;5.20;99.90;;;;;;5033757;28;20033;-70
2022/04/08 11:24:09;;;;;;;67.88;30.30;;;5.30;99.90;;;;;;5033758;28;20520;-70
2022/04/08 11:26:43;;;;;;;40.45;17.30;;;5.20;99.90;;;;;;5033965;28;20412;-69
2022/04/08 11:29:16;;;;;;;;;;;5.10;99.90;;;;;;5034453;28;20022;-69
2022/04/08 11:31:44;;;;;;;27.00;4.68;;;5.00;99.90;;;;;;5033767;28;20332;-70
2022/04/08 11:34:10;;;;;;;16.65;3.10;;;4.90;99.90;;;;;;5033165;28;20367;-69
2022/04/08 11:36:36;;;;;;;28.33;4.38;;;5.00;99.90;;;;;;5033921;28;20021;-69
2022/04/08 11:39:04;;;;;;;31.35;3.95;;;4.90;99.90;;;;;;5033755;28;20434;-69
2022/04/08 11:41:30;;;;;;;20.75;2.95;;;4.80;99.90;;;;;;5033775;28;20498;-69
2022/04/08 11:43:56;;;;;;;32.47;3.33;;;4.70;99.90;;;;;;5033844;28;20032;-70
2022/04/08 11:46:22;;;;;;;22.38;3.80;;;4.70;99.90;;;;;;5033533;28;20025;-69
2022/04/08 11:48:49;;;;;;;18.60;4.57;;;4.80;99.90;;;;;;5033482;28;20029;-70
2022/04/08 11:51:21;;;;;;;20.08;3.38;;;5.00;99.90;;;;;;5033408;28;20027;-69
2022/04/08 11:53:49;;;;;;;37.72;3.15;;;5.00;99.90;;;;;;5033660;28;20136;-70
2022/04/08 11:56:25;;;;;;;28.95;7.20;;;5.30;99.90;;;;;;5033895;28;20493;-70
2022/04/08 11:59:03;;;;;;;28.05;3.28;;;5.80;99.90;;;;;;5033419;28;20033;-70
2022/04/08 12:01:34;;;;;;;11.45;2.53;;;6.30;99.90;;;;;;5033353;28;20021;-69
2022/04/08 12:04:02;;;;;;;6.07;1.25;;;6.60;99.90;;;;;;5033303;28;20026;-69
2022/04/08 12:06:47;;;;;;;14.35;2.97;;;6.20;99.90;;;;;;5033303;28;20025;-70
2022/04/08 12:09:15;;;;;;;7.97;2.25;;;5.80;99.90;;;;;;5033348;28;20033;-69
2022/04/08 12:11:42;;;;;;;8.82;1.38;;;5.30;99.90;;;;;;5033288;28;20026;-69
2022/04/08 12:14:09;;;;;;;10.02;1.45;;;5.00;99.90;;;;;;5033224;28;20025;-69
2022/04/08 12:16:36;;;;;;;8.57;1.85;;;4.90;99.90;;;;;;5033159;28;20018;-69
2022/04/08 12:19:02;;;;;;;5.72;1.08;;;5.00;99.90;;;;;;5033196;28;20018;-69
2022/04/08 12:21:29;;;;;;;6.38;0.75;;;5.00;99.90;;;;;;5033331;28;20413;-71
2022/04/08 12:23:57;;;;;;;4.95;0.90;;;5.10;99.90;;;;;;5033071;28;20026;-69
2022/04/08 12:26:28;;;;;;;11.05;1.10;;;5.30;99.90;;;;;;5033186;28;20053;-70
2022/04/08 12:29:27;;;;;;;5.07;1.20;;;5.30;99.90;;;;;;5033111;28;20116;-70
2022/04/08 12:31:59;;;;;;;8.07;1.00;;;5.60;99.90;;;;;;5018631;28;20578;-70
2022/04/08 12:34:25;;;;;;;12.20;1.63;;;5.50;99.90;;;;;;5033635;28;20053;-69
2022/04/08 12:36:51;;;;;;;9.10;1.20;;;5.50;99.90;;;;;;5033338;28;20061;-70
2022/04/08 12:39:17;;;;;;;17.40;1.80;;;5.50;99.90;;;;;;5032983;28;20067;-70
2022/04/08 12:41:45;;;;;;;15.07;1.75;;;5.50;99.90;;;;;;5032956;28;20038;-70
2022/04/08 12:44:11;;;;;;;9.80;1.58;;;5.50;99.90;;;;;;5034602;28;20049;-70
2022/04/08 12:46:37;;;;;;;13.98;2.42;;;5.60;99.90;;;;;;5036821;28;20049;-69
2022/04/08 12:49:04;;;;;;;18.63;2.75;;;5.70;99.90;;;;;;5036704;28;20028;-70
2022/04/08 12:51:30;;;;;;;34.92;3.72;;;5.60;99.90;;;;;;5036623;28;20071;-70
2022/04/08 12:53:57;;;;;;;13.40;2.40;;;5.80;99.90;;;;;;5036822;28;20041;-72
2022/04/08 12:56:25;;;;;;;16.80;2.80;;;5.80;99.90;;;;;;5036784;28;20025;-72
2022/04/08 12:58:51;;;;;;;25.88;2.92;;;5.80;99.90;;;;;;5036698;28;20025;-72